Mijn Webcam Meer informatie Mijn Webcam


webcam facing north-east Meer informatie webcam facing north-east


Regen radar Meer informatie rain snow radar


Bezoek onze andere website:

Template documentation
and downloads

And another site


CBI



METAR rapporten vliegvelden

   
EHGG - Groningen/Eelde
Gewijzigd: 22-10-2017 06:25
Motregen, Bewolking  
Motregen, Bewolking  
   Wind: Zuiden 6,2 m/s
Wind: Zuiden 6,2 m/s
Temperatuur: 10°C
Voelt als: 7°C
Dauwpunt: 8°C
Vochtigheid: 88%
Barometer: 1005 hPa
Bewolking: Bewolking
Zicht: More then 10 km
Bewolking: Licht bewolkt 426,7 m,
Licht bewolkt 457,2 m,
Bewolking 1097,3 m
EHGG 220425Z AUTO 19012KT 150V220 9999 DZ FEW014 FEW015CB OVC036 10/08 Q1005 REDZ BECMG -RADZ SCT007 BKN010 TEMPO 4500 RADZ BKN007
EHMA - Schiermonnikoog
Gewijzigd: 22-10-2017 06:25
Wat regen mogelijk, Grotendeels bewolkt  
Wat regen mogelijk, Grotendeels bewolkt  
   Wind: Zuiden 14,9 m/s
Wind: Zuiden 14,9 m/s
Temperatuur: 10°C
Voelt als: 6°C
Dauwpunt: 9°C
Vochtigheid: 94%
Barometer: 1003 hPa
Bewolking: Grotendeels bewolkt
Zicht: 5 km
Bewolking: Licht bewolkt 213,4 m,
Grotendeels bewolkt 304,8 m,
Grotendeels bewolkt 396,2 m,
Licht bewolkt 457,2 m
EHMA 220425Z AUTO 19029KT 4800 -RA FEW007 BKN010 BKN013 FEW015CB 10/09 Q1003 RERA REDZ
EHMG - Terschelling
Gewijzigd: 22-10-2017 06:25
Gedeeltelijk bewolkt  
Gedeeltelijk bewolkt  
   Wind: WZW 10,8 m/s
Wind: WZW 10,8 m/s
Temperatuur: 14°C
Dauwpunt: 10°C
Vochtigheid: 77%
Barometer: 1001 hPa
Bewolking: Gedeeltelijk bewolkt
Zicht: More then 10 km
Bewolking: Licht bewolkt 426,7 m,
Licht bewolkt 457,2 m,
Gedeeltelijk bewolkt 579,1 m
EHMG 220425Z AUTO 24021KT 9999 FEW014 FEW015CB SCT019 14/10 Q1001
EHVL - Vlieland
Gewijzigd: 22-10-2017 06:32
Grotendeels bewolkt  
Grotendeels bewolkt  
   Wind: WZW 9,3 m/s
Wind: WZW 9,3 m/s
Temperatuur: 13°C
Dauwpunt: 11°C
Vochtigheid: 88%
Barometer: 1002 hPa
Bewolking: Grotendeels bewolkt
Zicht: More then 10 km
Bewolking: Gedeeltelijk bewolkt 518,2 m,
Grotendeels bewolkt 640,1 m,
Grotendeels bewolkt 792,5 m
EHVL 220432Z AUTO 24018KT 9999 SCT017 BKN021 BKN026 13/11 Q1002 WHT
ETWM - Meppen, Germany
Gewijzigd: 22-10-2017 06:20
  
  
   Wind: ZZW 3,6 m/s
Wind: ZZW 3,6 m/s
Temperatuur: 11°C
Dauwpunt: 6°C
Vochtigheid: 72%
Barometer: 1007 hPa
Zicht: More then 10 km
ETWM 220420Z AUTO 20007KT 9999 // ////// 11/06 Q1007 ///
 

Script ontwikkeld door  Saratoga-weather.org Aangepast voor de template door  Weerstation Leuven

U vindt ons ook hier:

Het Weer Aktueel

UK Metoffice

European Weather Network

WeatherCloud

Weather Underground

Benelux Weer Netwerk

AWEKAS

WeatherlinkIP

HAMweather, WeatherForYou, PWS Weather

Apparatuur in gebruik:

Weerstation
Davis VP2 Plus

Weerprogramma
Cumulus

Weercomputer
ASUS Eee Box B202

Webleverancier
Antagonist

Davis VP2 Plus

Cumulus

ASUS Eee Box B202

Antagonist